createdAt,value
2019-05-30T00:00:22.850Z,0
2019-05-30T00:01:07.144Z,0
2019-05-30T00:02:07.652Z,0
2019-05-30T00:03:07.411Z,0
2019-05-30T00:04:08.122Z,0
2019-05-30T00:05:07.559Z,0
2019-05-30T00:06:07.676Z,0
2019-05-30T00:07:10.906Z,0
2019-05-30T00:08:07.473Z,0
2019-05-30T00:09:08.019Z,0
2019-05-30T00:10:07.766Z,0
2019-05-30T00:11:07.760Z,0
2019-05-30T00:12:07.959Z,0
2019-05-30T00:13:07.857Z,0
2019-05-30T00:14:07.841Z,0
2019-05-30T00:15:10.805Z,0
2019-05-30T00:16:08.216Z,0
2019-05-30T00:17:08.071Z,0
2019-05-30T00:18:08.007Z,0
2019-05-30T00:19:07.997Z,0
2019-05-30T00:20:08.505Z,0
2019-05-30T00:21:07.697Z,0
2019-05-30T00:22:08.931Z,0
2019-05-30T00:23:09.163Z,0
2019-05-30T00:24:08.530Z,0
2019-05-30T00:25:07.246Z,0
2019-05-30T00:26:08.050Z,0
2019-05-30T00:27:08.985Z,0
2019-05-30T00:28:09.969Z,0
2019-05-30T00:29:08.619Z,0
2019-05-30T00:30:19.829Z,0
2019-05-30T00:31:07.539Z,0
2019-05-30T00:32:07.883Z,0
2019-05-30T00:33:09.544Z,0
2019-05-30T00:34:08.358Z,0
2019-05-30T00:35:08.253Z,0
2019-05-30T00:36:06.771Z,0
2019-05-30T00:37:08.417Z,0
2019-05-30T00:38:06.911Z,0
2019-05-30T00:39:06.854Z,0
2019-05-30T00:40:08.519Z,0
2019-05-30T00:41:08.562Z,0
2019-05-30T00:42:07.116Z,0
2019-05-30T00:43:07.181Z,0
2019-05-30T00:44:07.048Z,0
2019-05-30T00:45:23.602Z,0
2019-05-30T00:46:07.143Z,0
2019-05-30T00:47:09.131Z,0
2019-05-30T00:48:07.225Z,0
2019-05-30T00:49:07.327Z,0
2019-05-30T00:50:09.010Z,0
2019-05-30T00:51:07.527Z,0
2019-05-30T00:52:09.158Z,0
2019-05-30T00:53:07.816Z,0
2019-05-30T00:54:09.286Z,0
2019-05-30T00:55:07.741Z,0
2019-05-30T00:56:09.270Z,0
2019-05-30T00:57:07.748Z,0
2019-05-30T00:58:07.668Z,0
2019-05-30T00:59:07.707Z,0
2019-05-30T01:00:09.516Z,0
2019-05-30T01:01:07.812Z,0
2019-05-30T01:02:07.571Z,0
2019-05-30T01:03:13.485Z,0
2019-05-30T01:04:07.553Z,0
2019-05-30T01:05:10.194Z,0
2019-05-30T01:06:07.466Z,0
2019-05-30T01:07:09.561Z,0
2019-05-30T01:08:08.026Z,0
2019-05-30T01:09:07.645Z,0
2019-05-30T01:10:07.669Z,0
2019-05-30T01:11:07.647Z,0
2019-05-30T01:12:07.635Z,0
2019-05-30T01:13:08.087Z,0
2019-05-30T01:14:07.746Z,0
2019-05-30T01:15:07.628Z,0
2019-05-30T01:16:07.851Z,0
2019-05-30T01:17:07.656Z,0
2019-05-30T01:18:07.651Z,0
2019-05-30T01:19:07.642Z,0
2019-05-30T01:20:07.708Z,0
2019-05-30T01:21:07.738Z,0
2019-05-30T01:22:07.862Z,0
2019-05-30T01:23:07.703Z,0
2019-05-30T01:24:07.996Z,0
2019-05-30T01:25:08.251Z,0
2019-05-30T01:26:07.694Z,0
2019-05-30T01:27:07.317Z,0
2019-05-30T01:28:08.039Z,0
2019-05-30T01:29:07.634Z,0
2019-05-30T01:30:07.810Z,0
2019-05-30T01:31:15.824Z,0
2019-05-30T01:32:07.561Z,0
2019-05-30T01:33:08.224Z,0
2019-05-30T01:34:07.819Z,0
2019-05-30T01:35:08.335Z,0
2019-05-30T01:36:08.168Z,0
2019-05-30T01:37:08.175Z,0
2019-05-30T01:38:07.934Z,0
2019-05-30T01:39:07.984Z,0
2019-05-30T01:40:09.106Z,0
2019-05-30T01:41:08.331Z,0
2019-05-30T01:42:07.907Z,0
2019-05-30T01:43:08.311Z,0
2019-05-30T01:44:08.128Z,0
2019-05-30T01:45:08.744Z,0
2019-05-30T01:46:08.397Z,0
2019-05-30T01:47:08.340Z,0
2019-05-30T01:48:08.847Z,0
2019-05-30T01:49:07.095Z,0
2019-05-30T01:50:08.601Z,0
2019-05-30T01:51:07.089Z,0
2019-05-30T01:52:07.105Z,0
2019-05-30T01:53:08.482Z,0
2019-05-30T01:54:06.957Z,0
2019-05-30T01:55:07.019Z,0
2019-05-30T01:56:07.150Z,0
2019-05-30T01:57:07.055Z,0
2019-05-30T01:58:08.883Z,0
2019-05-30T01:59:07.131Z,0
2019-05-30T02:00:20.452Z,0
2019-05-30T02:01:28.196Z,0
2019-05-30T02:02:07.450Z,4
2019-05-30T02:03:07.315Z,4
2019-05-30T02:04:07.547Z,4
2019-05-30T02:05:07.591Z,0
2019-05-30T02:06:06.957Z,0
2019-05-30T02:07:07.513Z,4
2019-05-30T02:08:07.188Z,4
2019-05-30T02:09:07.604Z,4
2019-05-30T02:10:07.188Z,4
2019-05-30T02:11:07.405Z,4
2019-05-30T02:12:07.861Z,8
2019-05-30T02:13:07.518Z,4
2019-05-30T02:14:08.062Z,8
2019-05-30T02:15:07.641Z,8
2019-05-30T02:16:08.187Z,8
2019-05-30T02:17:08.163Z,12
2019-05-30T02:18:07.628Z,12
2019-05-30T02:19:07.814Z,12
2019-05-30T02:20:07.877Z,12
2019-05-30T02:21:08.197Z,16
2019-05-30T02:22:07.634Z,16
2019-05-30T02:23:11.395Z,20
2019-05-30T02:24:07.929Z,20
2019-05-30T02:25:06.673Z,20
2019-05-30T02:26:08.156Z,28
2019-05-30T02:27:08.209Z,28
2019-05-30T02:28:06.740Z,32
2019-05-30T02:29:06.540Z,40
2019-05-30T02:30:10.884Z,44
2019-05-30T02:31:09.357Z,44
2019-05-30T02:32:10.997Z,52
2019-05-30T02:33:07.853Z,60
2019-05-30T02:34:11.412Z,64
2019-05-30T02:35:08.245Z,76
2019-05-30T02:36:10.894Z,80
2019-05-30T02:37:10.080Z,92
2019-05-30T02:38:09.466Z,100
2019-05-30T02:39:07.896Z,112
2019-05-30T02:40:17.580Z,128
2019-05-30T02:41:09.977Z,140
2019-05-30T02:42:07.292Z,152
2019-05-30T02:43:10.302Z,168
2019-05-30T02:44:09.677Z,180
2019-05-30T02:45:10.588Z,196
2019-05-30T02:46:08.348Z,216
2019-05-30T02:47:09.618Z,232
2019-05-30T02:48:09.652Z,256
2019-05-30T02:49:14.105Z,276
2019-05-30T02:50:10.323Z,300
2019-05-30T02:51:08.379Z,320
2019-05-30T02:52:10.796Z,348
2019-05-30T02:53:10.342Z,372
2019-05-30T02:54:10.932Z,400
2019-05-30T02:55:10.905Z,432
2019-05-30T02:56:09.914Z,468
2019-05-30T02:57:08.481Z,500
2019-05-30T02:58:08.138Z,540
2019-05-30T02:59:09.286Z,580
2019-05-30T03:00:15.641Z,624
2019-05-30T03:01:11.857Z,664
2019-05-30T03:02:19.599Z,716
2019-05-30T03:03:13.648Z,756
2019-05-30T03:04:10.851Z,800
2019-05-30T03:05:11.777Z,848
2019-05-30T03:06:10.515Z,900
2019-05-30T03:07:11.251Z,952
2019-05-30T03:08:12.045Z,1004
2019-05-30T03:09:10.483Z,1060
2019-05-30T03:10:14.036Z,1116
2019-05-30T03:11:12.536Z,1176
2019-05-30T03:12:10.888Z,1240
2019-05-30T03:13:10.588Z,1304
2019-05-30T03:14:15.291Z,1368
2019-05-30T03:15:12.281Z,1428
2019-05-30T03:16:11.296Z,1496
2019-05-30T03:17:11.984Z,1564
2019-05-30T03:18:11.859Z,1632
2019-05-30T03:19:10.885Z,1700
2019-05-30T03:20:22.462Z,1784
2019-05-30T03:21:08.059Z,1840
2019-05-30T03:22:08.658Z,1920
2019-05-30T03:23:08.365Z,2004
2019-05-30T03:24:07.555Z,2096
2019-05-30T03:25:07.783Z,2204
2019-05-30T03:26:07.089Z,2348
2019-05-30T03:27:06.810Z,2528
2019-05-30T03:28:07.186Z,2760
2019-05-30T03:29:06.829Z,2956
2019-05-30T03:30:21.404Z,3224
2019-05-30T03:31:22.788Z,3492
2019-05-30T03:33:49.219Z,3880
2019-05-30T03:34:43.834Z,4008
2019-05-30T03:35:50.565Z,4160
2019-05-30T03:36:43.395Z,4300
2019-05-30T03:37:43.851Z,4456
2019-05-30T03:38:43.539Z,4616
2019-05-30T03:39:43.749Z,4740
2019-05-30T03:40:43.243Z,4920
2019-05-30T03:41:43.715Z,5124
2019-05-30T03:42:43.720Z,5248
2019-05-30T03:43:43.709Z,5464
2019-05-30T03:44:43.714Z,5696
2019-05-30T03:45:43.690Z,5836
2019-05-30T03:46:43.672Z,5976
2019-05-30T03:47:43.661Z,6032
2019-05-30T03:48:43.689Z,6084
2019-05-30T03:49:43.642Z,6220
2019-05-30T03:50:43.646Z,6404
2019-05-30T03:51:43.639Z,6736
2019-05-30T03:52:43.710Z,6940
2019-05-30T03:53:43.625Z,6936
2019-05-30T03:54:43.631Z,7048
2019-05-30T03:55:43.599Z,7116
2019-05-30T03:56:43.353Z,7396
2019-05-30T03:57:43.603Z,7584
2019-05-30T03:58:43.587Z,7784
2019-05-30T03:59:43.592Z,8156
2019-05-30T04:00:43.335Z,8208
2019-05-30T04:01:43.569Z,8364
2019-05-30T04:03:04.201Z,8724
2019-05-30T04:03:43.331Z,8392
2019-05-30T04:04:43.586Z,8752
2019-05-30T04:05:43.564Z,9060
2019-05-30T04:06:43.563Z,8976
2019-05-30T04:07:43.546Z,9560
2019-05-30T04:08:43.531Z,9436
2019-05-30T04:09:43.530Z,9464
2019-05-30T04:10:43.531Z,10188
2019-05-30T04:11:43.519Z,10320
2019-05-30T04:12:43.532Z,10596
2019-05-30T04:13:43.560Z,10588
2019-05-30T04:14:43.509Z,10456
2019-05-30T04:15:43.532Z,10820
2019-05-30T04:16:43.512Z,10936
2019-05-30T04:17:43.507Z,10824
2019-05-30T04:18:43.517Z,11440
2019-05-30T04:19:43.504Z,11552
2019-05-30T04:20:43.492Z,11412
2019-05-30T04:21:43.494Z,12124
2019-05-30T04:22:43.495Z,12416
2019-05-30T04:23:43.485Z,12640
2019-05-30T04:24:43.483Z,13216
2019-05-30T04:25:43.487Z,13600
2019-05-30T04:26:43.486Z,13664
2019-05-30T04:27:43.484Z,13440
2019-05-30T04:28:43.527Z,13888
2019-05-30T04:29:43.483Z,14528
2019-05-30T04:30:43.502Z,13888
2019-05-30T04:31:43.494Z,14016
2019-05-30T04:32:43.540Z,15808
2019-05-30T04:33:43.268Z,15232
2019-05-30T04:34:43.490Z,14944
2019-05-30T04:35:43.478Z,16128
2019-05-30T04:36:43.499Z,14336
2019-05-30T04:37:43.491Z,13212
2019-05-30T04:38:43.540Z,14204
2019-05-30T04:39:43.490Z,14208
2019-05-30T04:40:43.254Z,13112
2019-05-30T04:41:43.487Z,15776
2019-05-30T04:42:43.484Z,17088
2019-05-30T04:43:43.492Z,15776
2019-05-30T04:44:43.494Z,18240
2019-05-30T04:45:43.496Z,20096
2019-05-30T04:46:47.318Z,17920
2019-05-30T04:47:43.496Z,18816
2019-05-30T04:48:43.525Z,19584
2019-05-30T04:49:43.500Z,19712
2019-05-30T04:50:43.499Z,22240
2019-05-30T04:51:43.502Z,21504
2019-05-30T04:52:43.534Z,20192
2019-05-30T04:53:43.505Z,22784
2019-05-30T04:54:43.521Z,23648
2019-05-30T04:55:45.184Z,22464
2019-05-30T05:00:43.275Z,23456
2019-05-30T05:01:43.540Z,25536
2019-05-30T05:02:43.567Z,26144
2019-05-30T05:03:53.289Z,23904
2019-05-30T05:21:43.333Z,30848
2019-05-30T05:22:43.577Z,31520
2019-05-30T05:23:43.582Z,31488
2019-05-30T05:24:43.579Z,33888
2019-05-30T05:25:57.727Z,33344
2019-05-30T05:26:43.593Z,29440
2019-05-30T05:27:43.610Z,29344
2019-05-30T05:28:43.606Z,33280
2019-05-30T05:29:43.610Z,33696
2019-05-30T05:30:43.399Z,31296
2019-05-30T05:31:43.615Z,32416
2019-05-30T05:32:43.624Z,34688
2019-05-30T05:33:58.534Z,35712
2019-05-30T05:34:43.640Z,35872
2019-05-30T05:35:43.651Z,36032
2019-05-30T05:36:43.658Z,36192
2019-05-30T05:37:43.666Z,36384
2019-05-30T05:38:43.669Z,37376
2019-05-30T05:39:43.674Z,37312
2019-05-30T05:40:43.685Z,35328
2019-05-30T05:41:43.695Z,34752
2019-05-30T05:42:43.697Z,36608
2019-05-30T05:43:43.710Z,38528
2019-05-30T05:44:45.588Z,37536
2019-05-30T05:45:43.730Z,36128
2019-05-30T05:46:43.725Z,38560
2019-05-30T05:47:43.743Z,40768
2019-05-30T05:48:43.748Z,39488
2019-05-30T05:49:43.508Z,37952
2019-05-30T05:50:43.764Z,39456
2019-05-30T05:51:43.767Z,41664
2019-05-30T05:52:43.774Z,41728
2019-05-30T05:53:43.541Z,37568
2019-05-30T05:54:43.801Z,32512
2019-05-30T05:55:43.825Z,33920
2019-05-30T05:56:43.815Z,38720
2019-05-30T05:57:43.818Z,42176
2019-05-30T05:58:43.837Z,41120
2019-05-30T05:59:43.841Z,38176
2019-05-30T06:00:43.865Z,39744
2019-05-30T06:01:43.884Z,44832
2019-05-30T06:02:43.882Z,44416
2019-05-30T06:03:43.881Z,43040
2019-05-30T06:04:43.887Z,46144
2019-05-30T06:05:58.993Z,44160
2019-05-30T06:06:43.906Z,39264
2019-05-30T06:07:43.914Z,38112
2019-05-30T06:08:43.931Z,42848
2019-05-30T06:09:43.951Z,50816
2019-05-30T06:10:43.478Z,50080
2019-05-30T06:11:43.955Z,45856
2019-05-30T06:12:43.962Z,45664
2019-05-30T06:13:43.976Z,50432
2019-05-30T06:14:43.996Z,51520
2019-05-30T06:15:43.506Z,45376
2019-05-30T06:16:43.777Z,39328
2019-05-30T06:17:44.016Z,39008
2019-05-30T06:18:44.025Z,42656
2019-05-30T06:19:53.150Z,46176
2019-05-30T06:20:43.801Z,46112
2019-05-30T06:21:58.352Z,46592
2019-05-30T06:22:44.070Z,45760
2019-05-30T06:23:48.107Z,42144
2019-05-30T06:24:44.094Z,38656
2019-05-30T06:25:43.618Z,38112
2019-05-30T06:26:44.109Z,38784
2019-05-30T06:27:44.130Z,39840
2019-05-30T06:28:44.157Z,39552
2019-05-30T06:29:44.144Z,39872
2019-05-30T06:30:44.165Z,40608
2019-05-30T06:31:44.169Z,43104
2019-05-30T06:32:44.183Z,47744
2019-05-30T06:33:44.190Z,54368
2019-05-30T06:34:46.916Z,59328
2019-05-30T06:35:44.213Z,60512
2019-05-30T06:36:44.233Z,54432
2019-05-30T06:37:44.241Z,50048
2019-05-30T06:38:44.251Z,47552
2019-05-30T06:39:44.264Z,48256
2019-05-30T06:40:44.070Z,51072
2019-05-30T06:41:44.297Z,50560
2019-05-30T06:42:44.305Z,51840
2019-05-30T06:43:44.322Z,56320
2019-05-30T06:44:44.319Z,59616
2019-05-30T06:45:44.090Z,64128
2019-05-30T06:46:44.352Z,66848
2019-05-30T06:47:44.366Z,68480
2019-05-30T06:48:44.380Z,68800
2019-05-30T06:49:44.389Z,71456
2019-05-30T06:50:43.907Z,73440
2019-05-30T06:51:44.413Z,76192
2019-05-30T06:52:44.416Z,76160
2019-05-30T06:53:44.199Z,73248
2019-05-30T06:55:44.457Z,73152
2019-05-30T06:57:44.235Z,76032
2019-05-30T06:58:55.447Z,83808
2019-05-30T07:00:44.027Z,89312
2019-05-30T07:01:44.529Z,95968
2019-05-30T07:02:44.842Z,100064
2019-05-30T07:03:44.777Z,93184
2019-05-30T07:05:00.663Z,87616
2019-05-30T07:05:46.908Z,85280
2019-05-30T07:06:46.247Z,83936
2019-05-30T07:07:45.467Z,87104
2019-05-30T07:09:44.646Z,89376
2019-05-30T07:10:44.643Z,87072
2019-05-30T07:11:44.657Z,89376
2019-05-30T07:12:44.665Z,91296
2019-05-30T07:13:44.677Z,94496
2019-05-30T07:14:44.716Z,92704
2019-05-30T07:18:47.296Z,74304
2019-05-30T07:21:47.333Z,75776
2019-05-30T07:25:44.837Z,70528
2019-05-30T07:26:44.862Z,69472
2019-05-30T07:27:44.886Z,69824
2019-05-30T07:28:44.873Z,77728
2019-05-30T07:30:44.911Z,77120
2019-05-30T07:31:44.920Z,69120
2019-05-30T07:32:44.927Z,63936
2019-05-30T07:39:47.592Z,43552
2019-05-30T07:40:45.046Z,44256
2019-05-30T07:42:02.977Z,46976
2019-05-30T07:42:45.062Z,50208
2019-05-30T07:43:45.078Z,53184
2019-05-30T07:44:44.841Z,51968
2019-05-30T07:45:58.102Z,53056
2019-05-30T07:46:45.122Z,53728
2019-05-30T07:47:45.533Z,54592
2019-05-30T07:48:45.753Z,57760
2019-05-30T07:49:45.882Z,62336
2019-05-30T07:50:45.941Z,65696
2019-05-30T07:51:46.216Z,60448
2019-05-30T07:52:46.212Z,50848
2019-05-30T07:53:46.294Z,43200
2019-05-30T07:54:46.422Z,42464
2019-05-30T07:55:46.388Z,46048
2019-05-30T07:56:45.254Z,50176
2019-05-30T07:57:48.028Z,49856
2019-05-30T07:58:45.283Z,48032
2019-05-30T07:59:45.830Z,52352
2019-05-30T08:00:45.307Z,58976
2019-05-30T08:01:46.643Z,63424
2019-05-30T08:02:45.351Z,60640
2019-05-30T08:03:45.995Z,57088
2019-05-30T08:04:49.212Z,59968
2019-05-30T08:05:46.112Z,68704
2019-05-30T08:06:47.655Z,72256
2019-05-30T08:07:46.178Z,72096
2019-05-30T08:08:45.438Z,75936
2019-05-30T08:09:46.398Z,88064
2019-05-30T08:10:45.214Z,101280
2019-05-30T08:17:48.994Z,60640
2019-05-30T08:19:45.586Z,80352
2019-05-30T08:23:45.641Z,81600
2019-05-30T08:25:45.669Z,82880
2019-05-30T08:26:45.680Z,77728
2019-05-30T08:27:45.915Z,70720
2019-05-30T08:28:49.552Z,68256
2019-05-30T08:29:45.724Z,71296
2019-05-30T08:30:45.908Z,70944
2019-05-30T08:31:46.036Z,68192
2019-05-30T08:32:46.115Z,63296
2019-05-30T08:33:49.756Z,59968
2019-05-30T08:34:46.013Z,62880
2019-05-30T08:35:55.787Z,72128
2019-05-30T08:36:46.301Z,76032
2019-05-30T08:37:46.547Z,77184
2019-05-30T08:38:50.472Z,69824
2019-05-30T08:39:46.495Z,69152
2019-05-30T08:40:46.412Z,79872
2019-05-30T08:41:46.640Z,93696
2019-05-30T08:42:47.421Z,100896
2019-05-30T08:43:46.822Z,96288
2019-05-30T08:45:49.257Z,75904
2019-05-30T08:46:47.062Z,78208
2019-05-30T08:49:45.998Z,89312
2019-05-30T08:50:51.324Z,83424
2019-05-30T08:51:46.025Z,61504
2019-05-30T08:52:46.043Z,25888
2019-05-30T08:53:46.051Z,8864
2019-05-30T08:54:46.057Z,8412
2019-05-30T08:55:45.843Z,8272
2019-05-30T08:56:46.076Z,8176
2019-05-30T08:57:46.086Z,8108
2019-05-30T08:58:46.196Z,8092
2019-05-30T08:59:49.557Z,8092
2019-05-30T09:00:45.874Z,8060
2019-05-30T09:01:53.313Z,8012
2019-05-30T09:02:47.463Z,7984
2019-05-30T09:03:48.635Z,7964
2019-05-30T09:04:46.953Z,7932
2019-05-30T09:06:09.098Z,7916
2019-05-30T09:06:47.066Z,7932
2019-05-30T09:07:49.176Z,7900
2019-05-30T09:08:47.180Z,7888
2019-05-30T09:09:47.297Z,7872
2019-05-30T09:10:48.839Z,7860
2019-05-30T09:11:48.692Z,7832
2019-05-30T09:12:53.938Z,7812
2019-05-30T09:13:47.499Z,7796
2019-05-30T09:14:49.281Z,7776
2019-05-30T09:15:47.686Z,7736
2019-05-30T09:16:51.114Z,7732
2019-05-30T09:17:49.455Z,7756
2019-05-30T09:18:49.821Z,7728
2019-05-30T09:19:47.975Z,7716
2019-05-30T09:20:49.801Z,7712
2019-05-30T09:21:48.222Z,7692
2019-05-30T09:22:48.388Z,7676
2019-05-30T09:25:51.651Z,7584
2019-05-30T09:26:55.087Z,7548
2019-05-30T09:27:50.744Z,7524
2019-05-30T09:28:48.971Z,7504
2019-05-30T09:29:50.627Z,7460
2019-05-30T09:30:48.830Z,7416
2019-05-30T09:31:49.251Z,7404
2019-05-30T09:32:49.451Z,7404
2019-05-30T09:33:49.329Z,7408
2019-05-30T09:34:49.661Z,7412
2019-05-30T09:35:49.396Z,7420
2019-05-30T09:36:48.953Z,7424
2019-05-30T09:37:50.176Z,7400
2019-05-30T09:38:50.202Z,7368
2019-05-30T09:39:49.399Z,7352
2019-05-30T09:40:49.535Z,7352
2019-05-30T09:41:49.728Z,7356
2019-05-30T09:43:00.974Z,7368
2019-05-30T09:43:50.559Z,7368
2019-05-30T09:44:54.447Z,7364
2019-05-30T09:46:50.523Z,7348
2019-05-30T09:47:53.154Z,7332
2019-05-30T09:48:51.174Z,7300
2019-05-30T09:49:48.947Z,7268
2019-05-30T09:50:51.205Z,7256
2019-05-30T09:51:49.353Z,7264
2019-05-30T09:52:49.138Z,7252
2019-05-30T09:53:48.398Z,7228
2019-05-30T09:54:48.649Z,7208
2019-05-30T09:55:48.634Z,7196
2019-05-30T09:56:48.444Z,7192
2019-05-30T09:57:51.548Z,7200
2019-05-30T09:58:49.704Z,7212
2019-05-30T09:59:50.455Z,7172
2019-05-30T10:00:51.934Z,7084
2019-05-30T10:01:48.459Z,7044
2019-05-30T10:02:50.312Z,7032
2019-05-30T10:03:50.152Z,7028
2019-05-30T10:04:50.329Z,7024
2019-05-30T10:05:50.520Z,7024
2019-05-30T10:06:47.070Z,7000
2019-05-30T10:07:50.793Z,7012
2019-05-30T10:08:51.088Z,7016
2019-05-30T10:09:49.541Z,7004
2019-05-30T10:10:48.125Z,6980
2019-05-30T10:11:47.873Z,6960
2019-05-30T10:12:48.495Z,6964
2019-05-30T10:13:49.150Z,6980
2019-05-30T10:14:48.609Z,7004
2019-05-30T10:15:46.947Z,6996
2019-05-30T10:16:56.231Z,6976
2019-05-30T10:17:49.513Z,6944
2019-05-30T10:18:47.341Z,6876
2019-05-30T10:19:48.751Z,6828
2019-05-30T10:20:49.349Z,6780
2019-05-30T10:21:48.973Z,6756
2019-05-30T10:22:50.740Z,6752
2019-05-30T10:23:49.384Z,6740
2019-05-30T10:24:49.061Z,6704
2019-05-30T10:25:49.472Z,6644
2019-05-30T10:26:48.935Z,6592
2019-05-30T10:27:50.339Z,6768
2019-05-30T10:28:49.509Z,7204
2019-05-30T10:29:49.433Z,6808
2019-05-30T10:30:50.736Z,6744
2019-05-30T10:31:48.268Z,6904
2019-05-30T10:32:47.144Z,6740
2019-05-30T10:33:47.875Z,6616
2019-05-30T10:34:46.576Z,6544
2019-05-30T10:35:49.092Z,6524
2019-05-30T10:36:54.154Z,6528
2019-05-30T10:37:49.041Z,6532
2019-05-30T10:38:47.200Z,6512
2019-05-30T10:39:49.171Z,6476
2019-05-30T10:40:47.336Z,6448
2019-05-30T10:41:47.563Z,6436
2019-05-30T10:42:47.490Z,6432
2019-05-30T10:43:47.446Z,6452
2019-05-30T10:44:47.550Z,6460
2019-05-30T10:45:47.885Z,6488
2019-05-30T10:46:47.500Z,6512
2019-05-30T10:47:49.377Z,6512
2019-05-30T10:48:47.241Z,6528
2019-05-30T10:49:49.711Z,6492
2019-05-30T10:50:46.824Z,6452
2019-05-30T10:51:46.584Z,6408
2019-05-30T10:52:47.130Z,6388
2019-05-30T10:53:47.299Z,6352
2019-05-30T10:54:46.656Z,6332
2019-05-30T10:55:46.506Z,6316
2019-05-30T10:56:46.994Z,6292
2019-05-30T10:57:46.951Z,6280
2019-05-30T10:58:46.949Z,6288
2019-05-30T10:59:47.282Z,6292
2019-05-30T11:00:47.501Z,6288
2019-05-30T11:01:47.032Z,6288
2019-05-30T11:02:47.772Z,6280
2019-05-30T11:03:47.191Z,6256
2019-05-30T11:04:47.600Z,6244
2019-05-30T11:05:46.194Z,6228
2019-05-30T11:07:10.900Z,6216
2019-05-30T11:08:10.187Z,6200
2019-05-30T11:08:46.162Z,6184
2019-05-30T11:09:46.581Z,6160
2019-05-30T11:10:46.375Z,6140
2019-05-30T11:11:46.618Z,6152
2019-05-30T11:12:46.604Z,6120
2019-05-30T11:13:46.829Z,6132
2019-05-30T11:14:58.776Z,6156
2019-05-30T11:15:46.857Z,6180
2019-05-30T11:16:47.027Z,6192
2019-05-30T11:17:58.769Z,6188
2019-05-30T11:18:47.477Z,6304
2019-05-30T11:19:47.599Z,6428
2019-05-30T11:20:45.796Z,6344
2019-05-30T11:21:46.024Z,6352
2019-05-30T11:22:46.026Z,6292
2019-05-30T11:23:46.025Z,6148
2019-05-30T11:24:45.783Z,6112
2019-05-30T11:25:45.791Z,6076
2019-05-30T11:26:46.025Z,6032
2019-05-30T11:27:48.517Z,5980
2019-05-30T11:28:46.064Z,5924
2019-05-30T11:29:45.770Z,5884
2019-05-30T11:30:45.775Z,5968
2019-05-30T11:31:46.005Z,6088
2019-05-30T11:32:49.007Z,6000
2019-05-30T11:33:46.003Z,5896
2019-05-30T11:34:45.761Z,5892
2019-05-30T11:35:45.758Z,5892
2019-05-30T11:36:46.002Z,5860
2019-05-30T11:37:45.999Z,5852
2019-05-30T11:38:46.006Z,5860
2019-05-30T11:39:45.992Z,5836
2019-05-30T11:40:45.521Z,5820
2019-05-30T11:41:45.745Z,5812
2019-05-30T11:42:45.988Z,5816
2019-05-30T11:43:45.986Z,5820
2019-05-30T11:44:45.977Z,5804
2019-05-30T11:45:45.745Z,5780
2019-05-30T11:46:45.977Z,5768
2019-05-30T11:47:45.986Z,5764
2019-05-30T11:48:45.975Z,5748
2019-05-30T11:49:45.984Z,5764
2019-05-30T11:50:45.740Z,5780
2019-05-30T11:51:45.972Z,5808
2019-05-30T11:52:45.976Z,5836
2019-05-30T11:53:45.973Z,6000
2019-05-30T11:54:45.962Z,6232
2019-05-30T11:55:45.727Z,6524
2019-05-30T11:56:45.967Z,7016
2019-05-30T11:57:45.969Z,6916
2019-05-30T11:58:45.958Z,6764
2019-05-30T11:59:45.967Z,6224
2019-05-30T12:00:46.012Z,6000
2019-05-30T12:01:45.952Z,5868
2019-05-30T12:02:45.954Z,5852
2019-05-30T12:03:45.958Z,5876
2019-05-30T12:04:45.950Z,5904
2019-05-30T12:05:45.708Z,5896
2019-05-30T12:06:45.947Z,5868
2019-05-30T12:07:45.943Z,5824
2019-05-30T12:08:45.968Z,5788
2019-05-30T12:09:45.953Z,5760
2019-05-30T12:10:45.964Z,5728
2019-05-30T12:11:45.941Z,5768
2019-05-30T12:12:45.941Z,5752
2019-05-30T12:13:45.971Z,5804
2019-05-30T12:14:45.956Z,5804
2019-05-30T12:15:45.703Z,5852
2019-05-30T12:16:45.929Z,5864
2019-05-30T12:17:45.966Z,5776
2019-05-30T12:18:45.929Z,5688
2019-05-30T12:19:45.929Z,5652
2019-05-30T12:20:45.931Z,5660
2019-05-30T12:21:45.928Z,5660
2019-05-30T12:22:45.922Z,5660
2019-05-30T12:23:45.993Z,5644
2019-05-30T12:24:45.919Z,5588
2019-05-30T12:25:45.676Z,5572
2019-05-30T12:26:45.916Z,5552
2019-05-30T12:27:45.914Z,5548
2019-05-30T12:28:45.919Z,5516
2019-05-30T12:29:45.926Z,5480
2019-05-30T12:31:09.194Z,5440
2019-05-30T12:31:45.913Z,5428
2019-05-30T12:32:45.914Z,5400
2019-05-30T12:33:45.905Z,5492
2019-05-30T12:34:45.908Z,5808
2019-05-30T12:35:45.668Z,5808
2019-05-30T12:36:45.918Z,5656
2019-05-30T12:38:09.191Z,5688
2019-05-30T12:38:45.900Z,5732
2019-05-30T12:39:45.896Z,5740
2019-05-30T12:40:45.667Z,5544
2019-05-30T12:41:45.899Z,5452
2019-05-30T12:42:45.897Z,5592
2019-05-30T12:43:45.897Z,5620
2019-05-30T12:44:45.889Z,5564
2019-05-30T12:45:45.902Z,5524
2019-05-30T12:46:45.903Z,5556
2019-05-30T12:47:45.892Z,5600
2019-05-30T12:48:45.908Z,5544
2019-05-30T12:49:45.886Z,5448
2019-05-30T12:50:45.646Z,5404
2019-05-30T12:51:45.884Z,5392
2019-05-30T12:52:45.886Z,5408
2019-05-30T12:53:45.878Z,5504
2019-05-30T12:54:45.875Z,5832
2019-05-30T12:55:45.632Z,6312
2019-05-30T12:56:45.890Z,6468
2019-05-30T12:57:45.884Z,6172
2019-05-30T12:58:45.883Z,5864
2019-05-30T12:59:45.635Z,5740
2019-05-30T13:00:45.631Z,5572
2019-05-30T13:01:45.895Z,5432
2019-05-30T13:02:45.904Z,5508
2019-05-30T13:03:45.891Z,5840
2019-05-30T13:04:45.927Z,5932
2019-05-30T13:05:45.867Z,6084
2019-05-30T13:06:45.864Z,5880
2019-05-30T13:07:45.876Z,5832
2019-05-30T13:08:45.866Z,5944
2019-05-30T13:09:45.886Z,5864
2019-05-30T13:10:45.857Z,5836
2019-05-30T13:11:45.856Z,5676
2019-05-30T13:12:45.615Z,5524
2019-05-30T13:13:45.856Z,5444
2019-05-30T13:14:45.854Z,5392
2019-05-30T13:15:45.614Z,5404
2019-05-30T13:16:45.863Z,5448
2019-05-30T13:17:45.862Z,5492
2019-05-30T13:18:45.614Z,5444
2019-05-30T13:19:45.868Z,5352
2019-05-30T13:20:45.845Z,5604
2019-05-30T13:21:45.848Z,5948
2019-05-30T13:22:45.847Z,6016
2019-05-30T13:23:45.847Z,5912
2019-05-30T13:24:45.856Z,5872
2019-05-30T13:25:45.600Z,5940
2019-05-30T13:26:45.849Z,5920
2019-05-30T13:27:45.599Z,5792
2019-05-30T13:28:45.865Z,5704
2019-05-30T13:29:47.111Z,5608
2019-05-30T13:30:45.863Z,5560
2019-05-30T13:31:45.840Z,5556
2019-05-30T13:32:45.839Z,5616
2019-05-30T13:33:46.068Z,5696
2019-05-30T13:34:59.471Z,5712
2019-05-30T13:35:45.599Z,5704
2019-05-30T13:36:45.848Z,5596
2019-05-30T13:37:45.831Z,5636
2019-05-30T13:38:45.832Z,5688
2019-05-30T13:39:45.826Z,5788
2019-05-30T13:40:45.584Z,5904
2019-05-30T13:41:45.828Z,5956
2019-05-30T13:42:45.824Z,6088
2019-05-30T13:43:46.182Z,6252
2019-05-30T13:44:45.833Z,6372
2019-05-30T13:45:45.584Z,6484
2019-05-30T13:46:45.822Z,6324
2019-05-30T13:47:45.822Z,5980
2019-05-30T13:48:45.870Z,5944
2019-05-30T13:49:45.819Z,5976
2019-05-30T13:50:45.577Z,5984
2019-05-30T13:51:45.839Z,5956
2019-05-30T13:52:45.577Z,5936
2019-05-30T13:53:45.818Z,5968
2019-05-30T13:54:45.813Z,6168
2019-05-30T13:55:45.812Z,6496
2019-05-30T13:56:45.825Z,6596
2019-05-30T13:57:45.830Z,6444
2019-05-30T13:58:45.858Z,6396
2019-05-30T13:59:45.808Z,6624
2019-05-30T14:00:45.577Z,6872
2019-05-30T14:01:45.901Z,6568
2019-05-30T14:02:45.815Z,6400
2019-05-30T14:03:45.832Z,6384
2019-05-30T14:04:45.806Z,6412
2019-05-30T14:05:45.803Z,6440
2019-05-30T14:06:45.805Z,6428
2019-05-30T14:07:45.807Z,6404
2019-05-30T14:08:50.674Z,6408
2019-05-30T14:09:45.801Z,6420
2019-05-30T14:10:45.800Z,6400
2019-05-30T14:11:45.799Z,6436
2019-05-30T14:12:45.868Z,6500
2019-05-30T14:13:45.803Z,6556
2019-05-30T14:14:45.809Z,6592
2019-05-30T14:15:45.336Z,6664
2019-05-30T14:16:45.795Z,6864
2019-05-30T14:17:45.802Z,6984
2019-05-30T14:18:45.816Z,7032
2019-05-30T14:19:45.794Z,7052
2019-05-30T14:20:45.553Z,7132
2019-05-30T14:21:45.800Z,7244
2019-05-30T14:22:45.794Z,7396
2019-05-30T14:23:45.795Z,7744
2019-05-30T14:24:45.795Z,7948